Time;durP1;ratioP1;P1;durP2;ratioP2;P2;SDS_P1;SDS_P2;PMS_P1;PMS_P2;Temp;Humidity;BMP_temperature;BMP_pressure;BME280_temperature;BME280_humidity;BME280_pressure;Samples;Min_cycle;Max_cycle;Signal;HPM_P1;HPM_P2
2023/10/24 00:00:20;;;;;;;16.95;8.27;;;;;;;;;;5049943;28;20461;-54
2023/10/24 00:02:46;;;;;;;18.42;8.23;;;;;;;;;;5050212;28;20020;-53
2023/10/24 00:05:12;;;;;;;16.60;7.95;;;;;;;;;;5051480;28;20029;-51
2023/10/24 00:07:38;;;;;;;14.00;7.93;;;;;;;;;;5050310;28;20013;-51
2023/10/24 00:10:05;;;;;;;15.48;8.50;;;;;;;;;;5050050;28;20110;-52
2023/10/24 00:12:31;;;;;;;16.25;8.27;;;;;;;;;;5051100;28;20023;-55
2023/10/24 00:14:57;;;;;;;17.15;8.52;;;;;;;;;;5051334;28;20029;-51
2023/10/24 00:17:24;;;;;;;17.20;8.85;;;;;;;;;;5051095;28;20025;-50
2023/10/24 00:19:50;;;;;;;15.05;8.23;;;;;;;;;;5050904;28;20066;-54
2023/10/24 00:22:16;;;;;;;15.55;7.97;;;;;;;;;;5050861;28;20022;-49
2023/10/24 00:24:42;;;;;;;15.38;8.52;;;;;;;;;;5051473;28;20431;-52
2023/10/24 00:27:08;;;;;;;15.95;8.63;;;;;;;;;;5034385;28;20131;-52
2023/10/24 00:29:34;;;;;;;15.48;8.80;;;;;;;;;;5050979;28;20024;-51
2023/10/24 00:32:00;;;;;;;16.02;8.20;;;;;;;;;;5051268;28;20029;-51
2023/10/24 00:34:25;;;;;;;17.52;8.00;;;;;;;;;;5050977;28;20021;-52
2023/10/24 00:36:51;;;;;;;15.43;8.15;;;;;;;;;;5051012;28;20490;-49
2023/10/24 00:39:18;;;;;;;17.48;8.50;;;;;;;;;;5049568;28;20017;-48
2023/10/24 00:41:44;;;;;;;14.65;8.00;;;;;;;;;;5049587;28;20167;-51
2023/10/24 00:44:10;;;;;;;14.98;7.97;;;;;;;;;;5049648;28;20111;-52
2023/10/24 00:46:38;;;;;;;14.50;8.23;;;;;;;;;;5031022;28;20068;-55
2023/10/24 00:49:04;;;;;;;19.13;8.77;;;;;;;;;;5030976;28;20402;-47
2023/10/24 00:51:30;;;;;;;14.93;8.02;;;;;;;;;;5030291;28;20492;-54
2023/10/24 00:53:56;;;;;;;16.40;7.70;;;;;;;;;;5030709;28;20142;-50
2023/10/24 00:56:22;;;;;;;15.00;7.78;;;;;;;;;;5030720;28;20033;-50
2023/10/24 00:58:48;;;;;;;15.85;8.02;;;;;;;;;;5035965;28;20447;-53
2023/10/24 01:01:15;;;;;;;15.40;8.07;;;;;;;;;;5050426;28;20112;-53
2023/10/24 01:03:43;;;;;;;15.80;7.95;;;;;;;;;;5049341;28;20024;-51
2023/10/24 01:06:10;;;;;;;16.15;7.90;;;;;;;;;;5048496;28;20060;-49
2023/10/24 01:08:36;;;;;;;13.82;7.68;;;;;;;;;;5055801;28;20025;-50
2023/10/24 01:11:02;;;;;;;17.27;8.65;;;;;;;;;;5050153;28;20036;-52
2023/10/24 01:13:28;;;;;;;18.33;8.40;;;;;;;;;;5047397;28;20091;-54
2023/10/24 01:15:55;;;;;;;15.63;7.90;;;;;;;;;;5050299;28;20029;-51
2023/10/24 01:18:21;;;;;;;15.43;8.10;;;;;;;;;;5050290;28;20056;-52
2023/10/24 01:20:47;;;;;;;17.52;8.25;;;;;;;;;;5050010;28;20057;-49
2023/10/24 01:23:13;;;;;;;18.05;8.38;;;;;;;;;;5049965;28;20115;-54
2023/10/24 01:25:40;;;;;;;14.95;8.63;;;;;;;;;;5050437;28;20075;-51
2023/10/24 01:28:07;;;;;;;14.57;8.25;;;;;;;;;;5050232;28;20021;-53
2023/10/24 01:30:33;;;;;;;16.48;8.30;;;;;;;;;;5049830;28;20025;-53
2023/10/24 01:32:59;;;;;;;16.70;9.13;;;;;;;;;;5050081;28;20103;-55
2023/10/24 01:35:26;;;;;;;16.17;8.68;;;;;;;;;;5048686;28;20086;-53
2023/10/24 01:37:52;;;;;;;15.82;8.35;;;;;;;;;;5050022;28;20036;-53
2023/10/24 01:40:18;;;;;;;15.65;8.27;;;;;;;;;;5049596;28;20099;-48
2023/10/24 01:42:44;;;;;;;14.25;8.07;;;;;;;;;;5049840;28;20017;-51
2023/10/24 01:45:10;;;;;;;15.75;8.50;;;;;;;;;;5049888;28;20032;-50
2023/10/24 01:47:36;;;;;;;14.63;8.27;;;;;;;;;;5038078;28;20352;-50
2023/10/24 01:50:03;;;;;;;16.25;8.07;;;;;;;;;;5029672;28;20032;-52
2023/10/24 01:52:29;;;;;;;14.82;8.20;;;;;;;;;;5029906;28;20033;-53
2023/10/24 01:54:55;;;;;;;17.23;10.07;;;;;;;;;;5029841;28;20033;-53
2023/10/24 01:57:21;;;;;;;16.50;8.40;;;;;;;;;;5029719;28;20452;-52
2023/10/24 01:59:47;;;;;;;15.93;8.45;;;;;;;;;;5029589;28;20037;-52
2023/10/24 02:02:13;;;;;;;16.88;8.50;;;;;;;;;;5029781;28;20018;-54
2023/10/24 02:04:39;;;;;;;15.50;8.55;;;;;;;;;;5035349;28;20032;-53
2023/10/24 02:07:05;;;;;;;14.95;8.70;;;;;;;;;;5033688;28;20487;-55
2023/10/24 02:09:31;;;;;;;17.70;9.15;;;;;;;;;;5033548;28;20029;-53
2023/10/24 02:12:00;;;;;;;14.32;8.20;;;;;;;;;;5033767;28;20442;-54
2023/10/24 02:14:26;;;;;;;17.50;8.88;;;;;;;;;;5033862;28;20025;-53
2023/10/24 02:16:52;;;;;;;16.13;8.20;;;;;;;;;;5033526;28;20029;-51
2023/10/24 02:19:18;;;;;;;16.05;8.30;;;;;;;;;;5033560;28;20037;-51
2023/10/24 02:21:44;;;;;;;15.00;8.02;;;;;;;;;;5033909;28;20564;-51
2023/10/24 02:24:10;;;;;;;15.18;8.30;;;;;;;;;;5032452;28;20029;-52
2023/10/24 02:26:36;;;;;;;15.00;8.27;;;;;;;;;;5033958;28;20020;-49
2023/10/24 02:29:02;;;;;;;16.45;8.55;;;;;;;;;;5033780;28;20025;-50
2023/10/24 02:31:28;;;;;;;15.60;8.15;;;;;;;;;;5033253;28;20037;-50
2023/10/24 02:33:54;;;;;;;16.17;8.60;;;;;;;;;;5033690;28;20395;-52
2023/10/24 02:36:20;;;;;;;16.15;8.40;;;;;;;;;;5043237;28;20036;-55
2023/10/24 02:38:46;;;;;;;15.25;8.05;;;;;;;;;;5053324;28;20025;-53
2023/10/24 02:41:12;;;;;;;17.40;8.40;;;;;;;;;;5052995;28;20025;-52
2023/10/24 02:43:38;;;;;;;16.88;8.30;;;;;;;;;;5051869;28;20104;-53
2023/10/24 02:46:05;;;;;;;14.93;8.65;;;;;;;;;;5053120;28;20032;-53
2023/10/24 02:48:31;;;;;;;17.27;8.68;;;;;;;;;;5048943;28;20026;-51
2023/10/24 02:50:58;;;;;;;17.83;9.07;;;;;;;;;;5031882;28;20026;-52
2023/10/24 02:53:24;;;;;;;16.92;8.73;;;;;;;;;;5041328;28;20032;-55
2023/10/24 02:55:51;;;;;;;15.02;8.65;;;;;;;;;;5033354;28;20036;-54
2023/10/24 02:58:17;;;;;;;14.75;8.50;;;;;;;;;;5050191;28;20091;-53
2023/10/24 03:00:44;;;;;;;19.10;9.98;;;;;;;;;;5040007;28;20049;-50
2023/10/24 03:03:10;;;;;;;16.88;9.00;;;;;;;;;;5032905;28;20420;-55
2023/10/24 03:05:36;;;;;;;17.85;8.90;;;;;;;;;;5032971;28;20017;-55
2023/10/24 03:08:02;;;;;;;17.02;9.13;;;;;;;;;;5031738;28;20125;-56
2023/10/24 03:10:28;;;;;;;19.25;9.25;;;;;;;;;;5035043;28;20053;-51
2023/10/24 03:12:55;;;;;;;15.07;8.55;;;;;;;;;;5038372;28;20026;-53
2023/10/24 03:15:21;;;;;;;17.10;8.90;;;;;;;;;;5032709;28;20090;-53
2023/10/24 03:17:48;;;;;;;16.13;8.75;;;;;;;;;;5032773;28;20117;-54
2023/10/24 03:20:14;;;;;;;15.38;8.75;;;;;;;;;;5031306;28;20030;-52
2023/10/24 03:22:40;;;;;;;15.25;8.52;;;;;;;;;;5032551;28;20163;-54
2023/10/24 03:25:06;;;;;;;16.73;8.95;;;;;;;;;;5032584;28;20037;-52
2023/10/24 03:27:32;;;;;;;15.68;9.10;;;;;;;;;;5032281;28;20112;-52
2023/10/24 03:29:58;;;;;;;16.40;9.15;;;;;;;;;;5032170;28;20110;-53
2023/10/24 03:32:26;;;;;;;14.63;8.65;;;;;;;;;;5032032;28;20025;-54
2023/10/24 03:34:52;;;;;;;17.85;8.98;;;;;;;;;;5032213;28;20495;-54
2023/10/24 03:37:20;;;;;;;16.30;9.30;;;;;;;;;;5030847;28;20029;-54
2023/10/24 03:39:46;;;;;;;20.63;9.90;;;;;;;;;;5031836;28;20095;-52
2023/10/24 03:42:14;;;;;;;15.82;9.02;;;;;;;;;;5030462;28;20026;-54
2023/10/24 03:44:41;;;;;;;16.17;9.77;;;;;;;;;;5032298;28;20010;-54
2023/10/24 03:47:07;;;;;;;15.50;8.65;;;;;;;;;;5030804;28;20057;-52
2023/10/24 03:49:33;;;;;;;17.65;9.50;;;;;;;;;;5031815;28;20387;-56
2023/10/24 03:51:59;;;;;;;16.55;9.13;;;;;;;;;;5038406;28;20082;-55
2023/10/24 03:54:26;;;;;;;16.02;9.27;;;;;;;;;;5051469;28;20032;-53
2023/10/24 03:56:52;;;;;;;15.98;8.85;;;;;;;;;;5043508;28;20410;-54
2023/10/24 03:59:18;;;;;;;18.10;9.68;;;;;;;;;;5051360;28;20107;-54
2023/10/24 04:01:44;;;;;;;15.30;9.25;;;;;;;;;;5051537;28;20545;-51
2023/10/24 04:04:10;;;;;;;17.67;9.82;;;;;;;;;;5051374;28;20100;-51
2023/10/24 04:06:36;;;;;;;16.88;9.60;;;;;;;;;;5031880;28;20024;-56
2023/10/24 04:09:05;;;;;;;15.90;9.00;;;;;;;;;;5046846;28;20029;-56
2023/10/24 04:11:35;;;;;;;15.73;9.10;;;;;;;;;;5051461;28;20040;-50
2023/10/24 04:14:02;;;;;;;16.02;9.73;;;;;;;;;;5051444;28;20036;-52
2023/10/24 04:16:28;;;;;;;17.10;9.30;;;;;;;;;;5042270;28;20036;-54
2023/10/24 04:18:54;;;;;;;15.02;8.90;;;;;;;;;;5051752;28;20100;-53
2023/10/24 04:21:20;;;;;;;17.05;8.88;;;;;;;;;;5051010;28;20154;-51
2023/10/24 04:23:46;;;;;;;14.88;8.50;;;;;;;;;;5051331;28;20516;-55
2023/10/24 04:26:12;;;;;;;17.77;9.18;;;;;;;;;;5049363;28;20167;-55
2023/10/24 04:28:38;;;;;;;15.65;9.27;;;;;;;;;;5052141;28;20066;-54
2023/10/24 04:31:04;;;;;;;15.63;8.60;;;;;;;;;;5051835;28;20091;-53
2023/10/24 04:33:30;;;;;;;17.23;9.48;;;;;;;;;;5040097;28;20052;-53
2023/10/24 04:35:56;;;;;;;16.58;8.80;;;;;;;;;;5030985;28;20049;-49
2023/10/24 04:38:22;;;;;;;16.63;8.85;;;;;;;;;;5032216;28;20505;-54
2023/10/24 04:40:51;;;;;;;15.60;8.75;;;;;;;;;;5051075;28;20108;-50
2023/10/24 04:43:17;;;;;;;;;;;;;;;;;;5050050;28;20017;-53
2023/10/24 04:45:43;;;;;;;17.75;8.80;;;;;;;;;;5049673;28;19915;-53
2023/10/24 04:48:09;;;;;;;15.88;9.35;;;;;;;;;;5034708;28;20033;-55
2023/10/24 04:50:36;;;;;;;16.48;9.75;;;;;;;;;;5031035;28;20026;-55
2023/10/24 04:53:03;;;;;;;15.63;8.60;;;;;;;;;;5029692;28;20028;-53
2023/10/24 04:55:29;;;;;;;15.93;8.98;;;;;;;;;;5040986;28;20028;-55
2023/10/24 04:57:55;;;;;;;14.77;8.52;;;;;;;;;;5036464;28;20372;-53
2023/10/24 05:00:21;;;;;;;18.33;9.73;;;;;;;;;;5030395;28;20048;-51
2023/10/24 05:02:47;;;;;;;16.52;9.57;;;;;;;;;;5046401;22;20102;-58
2023/10/24 05:05:13;;;;;;;17.30;9.18;;;;;;;;;;5030667;28;20025;-59
2023/10/24 05:07:39;;;;;;;14.75;9.05;;;;;;;;;;5041973;28;20017;-61
2023/10/24 05:10:06;;;;;;;15.05;9.45;;;;;;;;;;5049562;28;20039;-61
2023/10/24 05:12:32;;;;;;;16.67;9.68;;;;;;;;;;5031568;28;20086;-60
2023/10/24 05:14:58;;;;;;;15.27;9.52;;;;;;;;;;5049747;28;20403;-60
2023/10/24 05:17:24;;;;;;;15.40;10.13;;;;;;;;;;5049560;28;20528;-60
2023/10/24 05:19:50;;;;;;;15.77;10.20;;;;;;;;;;5048837;28;20108;-63
2023/10/24 05:22:16;;;;;;;15.75;9.98;;;;;;;;;;5048896;28;20092;-62
2023/10/24 05:24:42;;;;;;;17.00;10.27;;;;;;;;;;5048938;28;20056;-62
2023/10/24 05:27:08;;;;;;;15.77;10.20;;;;;;;;;;5031274;28;20021;-62
2023/10/24 05:29:34;;;;;;;18.60;10.43;;;;;;;;;;5048592;28;20021;-59
2023/10/24 05:32:00;;;;;;;16.40;10.13;;;;;;;;;;5030785;28;20119;-62
2023/10/24 05:34:27;;;;;;;17.23;10.60;;;;;;;;;;5048629;28;20050;-63
2023/10/24 05:36:53;;;;;;;16.35;10.07;;;;;;;;;;5031084;28;20402;-61
2023/10/24 05:39:19;;;;;;;15.77;10.15;;;;;;;;;;5048801;28;20118;-62
2023/10/24 05:41:46;;;;;;;16.85;10.27;;;;;;;;;;5049057;28;20065;-61
2023/10/24 05:44:12;;;;;;;16.58;10.02;;;;;;;;;;5049188;28;20109;-63
2023/10/24 05:46:38;;;;;;;17.08;10.52;;;;;;;;;;5048525;28;20092;-63
2023/10/24 05:49:03;;;;;;;15.85;9.85;;;;;;;;;;5030543;28;20496;-62
2023/10/24 05:51:30;;;;;;;16.17;9.77;;;;;;;;;;5048532;28;20028;-58
2023/10/24 05:53:56;;;;;;;15.63;9.25;;;;;;;;;;5030667;28;20044;-63
2023/10/24 05:56:23;;;;;;;15.85;10.38;;;;;;;;;;5048588;28;20029;-62
2023/10/24 05:58:49;;;;;;;15.43;9.75;;;;;;;;;;5048901;28;20051;-57
2023/10/24 06:01:15;;;;;;;17.88;10.77;;;;;;;;;;5048266;28;20032;-62
2023/10/24 06:03:41;;;;;;;15.80;9.82;;;;;;;;;;5048744;28;20108;-61
2023/10/24 06:06:07;;;;;;;15.73;10.13;;;;;;;;;;5048760;28;20046;-60
2023/10/24 06:08:33;;;;;;;16.40;10.20;;;;;;;;;;5030812;28;20550;-62
2023/10/24 06:11:01;;;;;;;18.75;9.82;;;;;;;;;;5048908;28;20032;-63
2023/10/24 06:13:27;;;;;;;16.15;10.40;;;;;;;;;;5049258;28;20060;-59
2023/10/24 06:15:53;;;;;;;16.88;8.77;;;;;;;;;;5048820;28;20486;-63
2023/10/24 06:18:20;;;;;;;15.82;9.27;;;;;;;;;;5048604;28;20103;-62
2023/10/24 06:20:46;;;;;;;17.08;9.57;;;;;;;;;;5048458;28;20021;-63
2023/10/24 06:23:13;;;;;;;15.35;8.77;;;;;;;;;;5046850;28;20069;-59
2023/10/24 06:25:42;;;;;;;17.30;9.10;;;;;;;;;;5037113;28;20017;-62
2023/10/24 06:28:09;;;;;;;15.00;8.50;;;;;;;;;;5048738;28;20040;-64
2023/10/24 06:30:35;;;;;;;16.08;8.50;;;;;;;;;;5048157;28;20127;-63
2023/10/24 06:33:02;;;;;;;15.95;9.05;;;;;;;;;;5048232;28;20052;-60
2023/10/24 06:35:28;;;;;;;15.68;9.25;;;;;;;;;;5048343;28;20021;-61
2023/10/24 06:37:55;;;;;;;16.83;8.75;;;;;;;;;;5048917;28;20068;-59
2023/10/24 06:40:21;;;;;;;14.48;8.70;;;;;;;;;;5048295;28;20025;-62
2023/10/24 06:42:47;;;;;;;14.60;8.35;;;;;;;;;;5048228;28;20045;-60
2023/10/24 06:45:15;;;;;;;15.57;8.60;;;;;;;;;;5030632;28;20025;-63
2023/10/24 06:47:41;;;;;;;14.98;8.57;;;;;;;;;;5049280;28;20052;-61
2023/10/24 06:50:07;;;;;;;14.95;8.50;;;;;;;;;;5035150;28;20032;-61
2023/10/24 06:52:34;;;;;;;15.50;9.43;;;;;;;;;;5052116;28;20033;-60
2023/10/24 06:55:00;;;;;;;16.92;8.77;;;;;;;;;;5052467;28;20435;-61
2023/10/24 06:57:26;;;;;;;15.70;8.45;;;;;;;;;;5034209;28;20029;-63
2023/10/24 06:59:52;;;;;;;13.82;8.10;;;;;;;;;;5052167;28;20029;-62
2023/10/24 07:02:18;;;;;;;15.75;8.30;;;;;;;;;;5051625;28;20451;-60
2023/10/24 07:04:45;;;;;;;14.80;8.20;;;;;;;;;;5050995;28;20049;-61
2023/10/24 07:07:11;;;;;;;28.88;8.65;;;;;;;;;;5051435;28;20025;-63
2023/10/24 07:09:37;;;;;;;14.73;8.68;;;;;;;;;;5042732;28;20025;-63
2023/10/24 07:12:04;;;;;;;15.63;8.43;;;;;;;;;;5050916;28;20029;-63
2023/10/24 07:14:29;;;;;;;16.00;8.80;;;;;;;;;;5050805;28;20032;-62
2023/10/24 07:16:55;;;;;;;16.90;8.70;;;;;;;;;;5050385;28;20039;-60
2023/10/24 07:19:22;;;;;;;17.75;8.70;;;;;;;;;;5049540;28;20457;-64
2023/10/24 07:21:48;;;;;;;15.68;8.65;;;;;;;;;;5050282;28;20025;-63
2023/10/24 07:24:14;;;;;;;14.60;8.40;;;;;;;;;;5050365;28;20037;-55
2023/10/24 07:26:40;;;;;;;16.80;8.13;;;;;;;;;;5050494;28;20122;-51
2023/10/24 07:29:06;;;;;;;15.63;8.70;;;;;;;;;;5050338;28;20036;-57
2023/10/24 07:31:32;;;;;;;15.02;8.82;;;;;;;;;;5050058;28;20044;-50
2023/10/24 07:33:59;;;;;;;14.63;8.50;;;;;;;;;;5050843;28;20104;-49
2023/10/24 07:36:30;;;;;;;15.40;8.85;;;;;;;;;;5050324;28;20029;-53
2023/10/24 07:38:56;;;;;;;15.43;8.32;;;;;;;;;;5050126;28;20069;-47
2023/10/24 07:41:22;;;;;;;14.60;8.85;;;;;;;;;;5032114;28;20060;-54
2023/10/24 07:43:48;;;;;;;14.52;8.68;;;;;;;;;;5050267;28;20548;-52
2023/10/24 07:46:14;;;;;;;17.15;9.30;;;;;;;;;;5049968;28;20060;-52
2023/10/24 07:48:40;;;;;;;14.70;8.68;;;;;;;;;;5050208;28;20029;-52
2023/10/24 07:51:10;;;;;;;15.57;9.55;;;;;;;;;;5050123;28;20025;-55
2023/10/24 07:53:36;;;;;;;16.27;9.25;;;;;;;;;;5050007;28;20059;-51
2023/10/24 07:56:05;;;;;;;16.95;9.27;;;;;;;;;;5050116;28;20521;-55
2023/10/24 07:58:31;;;;;;;;;;;;;;;;;;5050327;28;20021;-53
2023/10/24 08:00:57;;;;;;;16.02;8.95;;;;;;;;;;5009756;28;1108290;-50
2023/10/24 08:03:23;;;;;;;15.68;9.50;;;;;;;;;;5050576;28;20027;-54
2023/10/24 08:05:49;;;;;;;15.80;9.35;;;;;;;;;;5044572;28;20047;-51
2023/10/24 08:08:15;;;;;;;16.27;9.57;;;;;;;;;;5051088;28;20033;-53
2023/10/24 08:10:41;;;;;;;16.58;9.85;;;;;;;;;;5050529;28;20017;-50
2023/10/24 08:13:07;;;;;;;15.73;9.85;;;;;;;;;;5050804;28;20382;-52
2023/10/24 08:15:33;;;;;;;15.48;9.30;;;;;;;;;;5050484;28;20044;-54
2023/10/24 08:17:59;;;;;;;16.13;10.20;;;;;;;;;;5032866;28;20036;-54
2023/10/24 08:20:26;;;;;;;16.05;10.32;;;;;;;;;;5050006;28;20032;-55
2023/10/24 08:22:53;;;;;;;16.70;9.20;;;;;;;;;;5045389;28;20063;-53
2023/10/24 08:25:19;;;;;;;17.60;9.65;;;;;;;;;;5050314;28;20016;-52
2023/10/24 08:27:45;;;;;;;17.58;10.43;;;;;;;;;;5050760;28;20047;-53
2023/10/24 08:30:11;;;;;;;16.02;10.00;;;;;;;;;;5050158;28;20235;-53
2023/10/24 08:32:37;;;;;;;14.90;9.57;;;;;;;;;;5050178;28;20021;-51
2023/10/24 08:35:03;;;;;;;17.15;9.52;;;;;;;;;;5050684;28;20481;-53
2023/10/24 08:37:30;;;;;;;17.08;9.70;;;;;;;;;;5050092;28;20108;-56
2023/10/24 08:39:56;;;;;;;16.02;9.60;;;;;;;;;;5050028;28;20052;-49
2023/10/24 08:42:22;;;;;;;15.73;9.52;;;;;;;;;;5050153;28;20048;-50
2023/10/24 08:44:49;;;;;;;16.60;9.70;;;;;;;;;;5050008;28;20501;-54
2023/10/24 08:47:15;;;;;;;14.98;9.13;;;;;;;;;;5049385;28;20538;-51
2023/10/24 08:49:42;;;;;;;14.95;10.00;;;;;;;;;;5039942;28;20055;-55
2023/10/24 08:52:09;;;;;;;15.38;9.82;;;;;;;;;;5050836;28;20489;-51
2023/10/24 08:54:35;;;;;;;14.98;9.20;;;;;;;;;;5049619;28;20029;-50
2023/10/24 08:57:04;;;;;;;15.50;9.52;;;;;;;;;;5050287;28;20398;-51
2023/10/24 08:59:35;;;;;;;15.55;9.90;;;;;;;;;;5050414;28;20021;-55
2023/10/24 09:02:01;;;;;;;15.10;9.25;;;;;;;;;;5042005;28;20037;-51
2023/10/24 09:04:29;;;;;;;16.20;9.88;;;;;;;;;;5049742;28;20386;-53
2023/10/24 09:06:55;;;;;;;15.18;9.70;;;;;;;;;;5050300;28;20498;-49
2023/10/24 09:09:23;;;;;;;16.77;9.77;;;;;;;;;;5049505;28;20025;-52
2023/10/24 09:11:56;;;;;;;15.73;10.00;;;;;;;;;;5049536;28;20029;-50
2023/10/24 09:14:23;;;;;;;16.02;9.98;;;;;;;;;;5049706;28;20209;-55
2023/10/24 09:16:56;;;;;;;16.40;9.85;;;;;;;;;;5048601;28;20473;-56
2023/10/24 09:19:22;;;;;;;15.57;9.55;;;;;;;;;;5049607;28;20028;-53
2023/10/24 09:21:49;;;;;;;15.07;9.40;;;;;;;;;;5049678;28;20544;-55
2023/10/24 09:24:15;;;;;;;15.95;9.75;;;;;;;;;;5049556;28;20059;-53
2023/10/24 09:26:49;;;;;;;14.93;9.23;;;;;;;;;;5049867;28;20040;-55
2023/10/24 09:29:16;;;;;;;16.17;9.40;;;;;;;;;;5049537;28;20024;-51
2023/10/24 09:31:42;;;;;;;16.27;9.35;;;;;;;;;;5049465;28;20049;-52
2023/10/24 09:34:08;;;;;;;14.48;9.02;;;;;;;;;;5047857;28;20871;-57
2023/10/24 09:36:35;;;;;;;14.82;9.23;;;;;;;;;;5051127;28;20017;-53
2023/10/24 09:39:01;;;;;;;15.38;9.43;;;;;;;;;;5042948;28;20510;-50
2023/10/24 09:41:27;;;;;;;15.43;9.38;;;;;;;;;;5047756;28;20106;-53
2023/10/24 09:43:55;;;;;;;15.90;10.13;;;;;;;;;;5030015;28;20115;-57
2023/10/24 09:46:23;;;;;;;16.63;9.02;;;;;;;;;;5048724;28;20047;-56
2023/10/24 09:48:51;;;;;;;15.43;9.50;;;;;;;;;;5049249;28;20033;-56
2023/10/24 09:51:19;;;;;;;16.07;9.73;;;;;;;;;;5031121;28;20398;-51
2023/10/24 09:53:46;;;;;;;16.80;9.68;;;;;;;;;;5050113;28;20168;-50
2023/10/24 09:56:13;;;;;;;15.55;9.93;;;;;;;;;;5048302;28;20535;-54
2023/10/24 09:58:41;;;;;;;17.05;9.25;;;;;;;;;;5044620;28;20040;-53
2023/10/24 10:01:07;;;;;;;16.13;9.73;;;;;;;;;;5049096;28;20041;-53
2023/10/24 10:03:34;;;;;;;16.67;9.55;;;;;;;;;;5049213;28;20056;-53
2023/10/24 10:06:04;;;;;;;15.88;8.93;;;;;;;;;;5048049;28;20107;-53
2023/10/24 10:08:31;;;;;;;15.85;9.70;;;;;;;;;;5048565;28;20014;-54
2023/10/24 10:10:59;;;;;;;15.63;9.20;;;;;;;;;;5052024;28;20054;-57
2023/10/24 10:13:30;;;;;;;15.48;9.00;;;;;;;;;;5048557;28;20029;-55
2023/10/24 10:16:19;;;;;;;14.73;9.05;;;;;;;;;;5048713;28;20029;-55
2023/10/24 10:19:04;;;;;;;15.02;9.23;;;;;;;;;;5035694;28;20045;-53
2023/10/24 10:21:30;;;;;;;15.52;9.48;;;;;;;;;;5030758;28;20086;-51
2023/10/24 10:24:08;;;;;;;15.38;8.75;;;;;;;;;;5051157;28;20025;-53
2023/10/24 10:26:39;;;;;;;14.68;8.95;;;;;;;;;;5051167;28;20039;-57
2023/10/24 10:29:16;;;;;;;15.82;8.85;;;;;;;;;;5052022;28;20036;-53
2023/10/24 10:32:07;;;;;;;14.40;9.02;;;;;;;;;;5051332;28;20029;-55
2023/10/24 10:34:34;;;;;;;15.85;9.23;;;;;;;;;;5051492;28;20390;-55
2023/10/24 10:37:00;;;;;;;15.63;9.32;;;;;;;;;;5052288;28;20114;-55
2023/10/24 10:39:26;;;;;;;15.65;9.30;;;;;;;;;;5052237;28;20061;-52
2023/10/24 10:41:52;;;;;;;14.65;9.00;;;;;;;;;;5052211;28;20025;-55
2023/10/24 10:44:31;;;;;;;15.02;9.23;;;;;;;;;;5034090;28;20055;-50
2023/10/24 10:47:00;;;;;;;14.57;9.30;;;;;;;;;;5052375;28;20443;-54
2023/10/24 10:49:27;;;;;;;14.80;9.70;;;;;;;;;;5052309;28;20029;-54
2023/10/24 10:51:54;;;;;;;15.45;10.20;;;;;;;;;;5052108;28;20073;-53
2023/10/24 10:54:23;;;;;;;15.07;10.30;;;;;;;;;;5052915;28;20119;-53
2023/10/24 10:56:49;;;;;;;;;;;;;;;;;;5053209;28;20420;-49
2023/10/24 10:59:34;;;;;;;14.93;9.30;;;;;;;;;;5052494;28;19995;-53
2023/10/24 11:02:07;;;;;;;15.68;9.98;;;;;;;;;;5052895;28;20033;-52
2023/10/24 11:04:35;;;;;;;14.90;9.68;;;;;;;;;;5051756;28;20044;-56
2023/10/24 11:07:03;;;;;;;15.85;10.05;;;;;;;;;;5052187;28;20021;-55
2023/10/24 11:09:36;;;;;;;16.07;10.20;;;;;;;;;;5051986;28;20025;-52
2023/10/24 11:12:20;;;;;;;15.20;10.50;;;;;;;;;;5052295;28;20763;-52
2023/10/24 11:15:05;;;;;;;14.60;10.10;;;;;;;;;;5052064;28;20033;-55
2023/10/24 11:17:32;;;;;;;15.45;10.57;;;;;;;;;;5051932;28;20051;-52
2023/10/24 11:19:59;;;;;;;14.88;10.70;;;;;;;;;;5051572;28;20084;-56
2023/10/24 11:22:25;;;;;;;15.43;10.80;;;;;;;;;;5051631;28;20078;-56
2023/10/24 11:24:51;;;;;;;14.88;10.98;;;;;;;;;;5051730;28;20032;-54
2023/10/24 11:27:17;;;;;;;15.45;10.60;;;;;;;;;;5051131;28;20079;-54
2023/10/24 11:29:43;;;;;;;15.15;10.70;;;;;;;;;;5051576;28;20090;-53
2023/10/24 11:32:09;;;;;;;16.65;11.00;;;;;;;;;;5052018;28;20429;-55
2023/10/24 11:34:36;;;;;;;15.00;10.40;;;;;;;;;;5051863;28;20052;-54
2023/10/24 11:37:02;;;;;;;15.15;10.45;;;;;;;;;;5051784;28;20028;-50
2023/10/24 11:39:30;;;;;;;15.35;10.70;;;;;;;;;;5033510;28;20029;-54
2023/10/24 11:41:56;;;;;;;16.17;10.45;;;;;;;;;;5051528;28;20021;-52
2023/10/24 11:44:22;;;;;;;14.68;10.23;;;;;;;;;;5051540;28;20188;-53
2023/10/24 11:46:48;;;;;;;14.55;10.55;;;;;;;;;;5051859;28;20083;-50
2023/10/24 11:49:14;;;;;;;14.65;10.20;;;;;;;;;;5051359;28;20041;-49
2023/10/24 11:51:40;;;;;;;14.60;10.90;;;;;;;;;;5051736;28;20102;-55
2023/10/24 11:54:07;;;;;;;15.52;10.00;;;;;;;;;;5051382;28;20407;-55
2023/10/24 11:56:34;;;;;;;14.63;10.00;;;;;;;;;;5051069;28;20468;-53
2023/10/24 11:59:01;;;;;;;15.25;10.35;;;;;;;;;;5051259;28;20430;-52
2023/10/24 12:01:30;;;;;;;15.70;10.02;;;;;;;;;;5050628;28;20098;-53
2023/10/24 12:03:57;;;;;;;14.65;10.00;;;;;;;;;;5051167;28;20505;-56
2023/10/24 12:06:23;;;;;;;14.40;9.70;;;;;;;;;;5033316;28;20029;-54
2023/10/24 12:08:50;;;;;;;15.38;9.88;;;;;;;;;;5051442;28;20078;-55
2023/10/24 12:11:16;;;;;;;14.10;9.52;;;;;;;;;;5050248;28;20486;-56
2023/10/24 12:13:42;;;;;;;16.48;10.10;;;;;;;;;;5051405;28;20037;-56
2023/10/24 12:16:08;;;;;;;15.38;10.20;;;;;;;;;;5051477;28;20086;-54
2023/10/24 12:18:38;;;;;;;14.98;9.77;;;;;;;;;;5051257;28;20029;-54
2023/10/24 12:21:04;;;;;;;14.20;9.27;;;;;;;;;;5050518;28;20017;-53
2023/10/24 12:23:30;;;;;;;15.20;9.73;;;;;;;;;;5050577;28;20036;-54
2023/10/24 12:25:56;;;;;;;14.73;10.15;;;;;;;;;;5050517;28;20416;-54
2023/10/24 12:28:22;;;;;;;17.13;9.88;;;;;;;;;;5050756;28;20033;-55
2023/10/24 12:30:48;;;;;;;15.40;10.30;;;;;;;;;;5050405;28;20025;-54
2023/10/24 12:33:14;;;;;;;14.50;9.95;;;;;;;;;;5050655;28;20031;-55
2023/10/24 12:35:40;;;;;;;14.70;9.85;;;;;;;;;;5050528;28;20020;-57
2023/10/24 12:38:06;;;;;;;14.80;9.93;;;;;;;;;;5050798;28;20113;-56
2023/10/24 12:40:32;;;;;;;15.77;10.10;;;;;;;;;;5050125;28;20021;-56
2023/10/24 12:42:58;;;;;;;15.38;9.93;;;;;;;;;;5050419;28;20020;-53
2023/10/24 12:45:24;;;;;;;15.65;9.90;;;;;;;;;;5049608;28;20063;-54
2023/10/24 12:47:53;;;;;;;14.23;9.30;;;;;;;;;;5032231;28;20060;-54
2023/10/24 12:50:19;;;;;;;;;;;;;;;;;;5051303;28;20013;-55
2023/10/24 12:52:45;;;;;;;15.70;10.18;;;;;;;;;;5050275;28;19974;-54
2023/10/24 12:55:11;;;;;;;15.15;9.80;;;;;;;;;;5050339;28;20021;-53
2023/10/24 12:57:37;;;;;;;16.35;9.70;;;;;;;;;;5049814;28;20053;-51
2023/10/24 13:00:04;;;;;;;18.25;9.85;;;;;;;;;;5049989;28;20056;-54
2023/10/24 13:02:30;;;;;;;15.82;9.40;;;;;;;;;;5050107;28;20122;-51
2023/10/24 13:04:56;;;;;;;15.95;9.82;;;;;;;;;;5050158;28;20461;-52
2023/10/24 13:07:22;;;;;;;14.80;9.50;;;;;;;;;;5049587;28;20029;-52
2023/10/24 13:09:48;;;;;;;14.45;9.23;;;;;;;;;;5049390;28;20621;-50
2023/10/24 13:12:14;;;;;;;15.05;9.50;;;;;;;;;;5049876;28;20029;-53
2023/10/24 13:14:40;;;;;;;14.68;9.52;;;;;;;;;;5049652;28;20029;-54
2023/10/24 13:17:06;;;;;;;14.65;9.82;;;;;;;;;;5049805;28;20395;-54
2023/10/24 13:19:32;;;;;;;14.93;9.50;;;;;;;;;;5049481;28;20040;-55
2023/10/24 13:21:58;;;;;;;15.85;9.48;;;;;;;;;;5049475;28;20033;-54
2023/10/24 13:24:25;;;;;;;16.95;10.55;;;;;;;;;;5031484;28;20017;-52
2023/10/24 13:26:51;;;;;;;14.90;9.25;;;;;;;;;;5038437;28;20041;-56
2023/10/24 13:29:20;;;;;;;15.25;9.95;;;;;;;;;;5046268;28;20479;-56
2023/10/24 13:31:47;;;;;;;21.05;10.27;;;;;;;;;;5041304;28;20028;-52
2023/10/24 13:34:13;;;;;;;15.15;9.90;;;;;;;;;;5034767;28;20041;-58
2023/10/24 13:36:39;;;;;;;17.65;10.70;;;;;;;;;;5048687;28;20112;-56
2023/10/24 13:39:06;;;;;;;14.95;9.70;;;;;;;;;;5049102;28;20065;-57
2023/10/24 13:41:32;;;;;;;17.08;10.13;;;;;;;;;;5041517;28;20026;-55
2023/10/24 13:43:58;;;;;;;15.85;9.60;;;;;;;;;;5050035;28;20021;-52
2023/10/24 13:46:25;;;;;;;16.42;9.63;;;;;;;;;;5032589;28;20024;-50
2023/10/24 13:48:51;;;;;;;19.30;11.85;;;;;;;;;;5048743;28;20041;-54
2023/10/24 13:51:17;;;;;;;16.33;10.75;;;;;;;;;;5048549;28;20162;-56
2023/10/24 13:53:43;;;;;;;15.32;10.65;;;;;;;;;;5045946;28;20067;-54
2023/10/24 13:56:09;;;;;;;16.63;11.20;;;;;;;;;;5047040;28;20025;-52
2023/10/24 13:58:36;;;;;;;15.70;12.02;;;;;;;;;;5046005;28;20467;-53
2023/10/24 14:01:03;;;;;;;16.35;12.23;;;;;;;;;;5046218;28;20033;-56
2023/10/24 14:03:29;;;;;;;19.38;15.32;;;;;;;;;;5046991;28;20028;-50
2023/10/24 14:05:57;;;;;;;18.40;16.50;;;;;;;;;;5045866;28;20079;-51
2023/10/24 14:08:23;;;;;;;18.70;16.80;;;;;;;;;;5045710;28;20029;-53
2023/10/24 14:10:50;;;;;;;18.88;16.23;;;;;;;;;;5046349;28;20033;-53
2023/10/24 14:13:16;;;;;;;19.00;14.57;;;;;;;;;;5047267;28;20033;-51
2023/10/24 14:15:43;;;;;;;16.00;13.43;;;;;;;;;;5048267;28;20024;-55
2023/10/24 14:18:09;;;;;;;17.50;14.32;;;;;;;;;;5047972;28;20025;-55
2023/10/24 14:20:35;;;;;;;16.85;13.82;;;;;;;;;;5048106;28;20048;-54
2023/10/24 14:23:01;;;;;;;16.80;13.65;;;;;;;;;;5048420;28;20029;-51
2023/10/24 14:25:27;;;;;;;16.40;12.45;;;;;;;;;;5048847;28;20033;-52